sensor_id;sensor_type;location;lat;lon;timestamp;P1;durP1;ratioP1;P2;durP2;ratioP2
49948;SDS011;35840;45.982;8.890;2023-04-07T00:01:23;8.43;;;5.43;;
49948;SDS011;35840;45.982;8.890;2023-04-07T00:03:50;8.10;;;5.85;;
49948;SDS011;35840;45.982;8.890;2023-04-07T00:06:18;9.77;;;6.13;;
49948;SDS011;35840;45.982;8.890;2023-04-07T00:08:44;7.80;;;5.63;;
49948;SDS011;35840;45.982;8.890;2023-04-07T00:11:11;7.15;;;5.55;;
49948;SDS011;35840;45.982;8.890;2023-04-07T00:13:38;7.30;;;5.85;;
49948;SDS011;35840;45.982;8.890;2023-04-07T00:16:05;8.30;;;5.78;;
49948;SDS011;35840;45.982;8.890;2023-04-07T00:18:32;8.90;;;6.25;;
49948;SDS011;35840;45.982;8.890;2023-04-07T00:20:58;10.13;;;6.18;;
49948;SDS011;35840;45.982;8.890;2023-04-07T00:23:25;9.65;;;5.10;;
49948;SDS011;35840;45.982;8.890;2023-04-07T00:25:52;14.70;;;5.53;;
49948;SDS011;35840;45.982;8.890;2023-04-07T00:28:19;7.05;;;4.82;;
49948;SDS011;35840;45.982;8.890;2023-04-07T00:30:46;10.13;;;5.05;;
49948;SDS011;35840;45.982;8.890;2023-04-07T00:33:12;6.82;;;4.63;;
49948;SDS011;35840;45.982;8.890;2023-04-07T00:35:39;6.35;;;4.40;;
49948;SDS011;35840;45.982;8.890;2023-04-07T00:38:06;6.57;;;4.32;;
49948;SDS011;35840;45.982;8.890;2023-04-07T00:40:33;6.40;;;4.57;;
49948;SDS011;35840;45.982;8.890;2023-04-07T00:43:00;6.43;;;3.75;;
49948;SDS011;35840;45.982;8.890;2023-04-07T00:45:27;5.78;;;4.05;;
49948;SDS011;35840;45.982;8.890;2023-04-07T00:47:55;8.23;;;4.78;;
49948;SDS011;35840;45.982;8.890;2023-04-07T00:50:23;7.03;;;5.30;;
49948;SDS011;35840;45.982;8.890;2023-04-07T00:52:51;6.85;;;4.38;;
49948;SDS011;35840;45.982;8.890;2023-04-07T00:55:20;8.25;;;5.13;;
49948;SDS011;35840;45.982;8.890;2023-04-07T00:57:47;8.43;;;4.97;;
49948;SDS011;35840;45.982;8.890;2023-04-07T01:00:14;7.63;;;5.18;;
49948;SDS011;35840;45.982;8.890;2023-04-07T01:02:51;6.18;;;4.10;;
49948;SDS011;35840;45.982;8.890;2023-04-07T01:05:24;7.60;;;4.80;;
49948;SDS011;35840;45.982;8.890;2023-04-07T01:10:52;9.80;;;4.80;;
49948;SDS011;35840;45.982;8.890;2023-04-07T01:13:36;9.25;;;5.53;;
49948;SDS011;35840;45.982;8.890;2023-04-07T01:16:34;7.70;;;4.97;;
49948;SDS011;35840;45.982;8.890;2023-04-07T01:21:54;8.38;;;5.75;;
49948;SDS011;35840;45.982;8.890;2023-04-07T01:27:35;9.30;;;5.63;;
49948;SDS011;35840;45.982;8.890;2023-04-07T01:30:09;8.43;;;5.00;;
49948;SDS011;35840;45.982;8.890;2023-04-07T01:32:38;10.30;;;5.63;;
49948;SDS011;35840;45.982;8.890;2023-04-07T01:35:09;10.68;;;6.80;;
49948;SDS011;35840;45.982;8.890;2023-04-07T01:37:39;8.57;;;5.70;;
49948;SDS011;35840;45.982;8.890;2023-04-07T01:40:07;7.25;;;5.68;;
49948;SDS011;35840;45.982;8.890;2023-04-07T01:42:36;8.13;;;5.00;;
49948;SDS011;35840;45.982;8.890;2023-04-07T01:45:05;15.35;;;4.72;;
49948;SDS011;35840;45.982;8.890;2023-04-07T01:47:34;7.18;;;5.03;;
49948;SDS011;35840;45.982;8.890;2023-04-07T01:50:02;6.78;;;4.68;;
49948;SDS011;35840;45.982;8.890;2023-04-07T01:52:32;8.23;;;4.45;;
49948;SDS011;35840;45.982;8.890;2023-04-07T01:55:03;6.00;;;3.78;;
49948;SDS011;35840;45.982;8.890;2023-04-07T01:57:34;6.25;;;3.42;;
49948;SDS011;35840;45.982;8.890;2023-04-07T02:00:09;4.50;;;3.28;;
49948;SDS011;35840;45.982;8.890;2023-04-07T02:02:46;5.07;;;3.40;;
49948;SDS011;35840;45.982;8.890;2023-04-07T02:05:18;4.78;;;2.83;;
49948;SDS011;35840;45.982;8.890;2023-04-07T02:10:32;5.80;;;3.67;;
49948;SDS011;35840;45.982;8.890;2023-04-07T02:13:05;5.07;;;3.35;;
49948;SDS011;35840;45.982;8.890;2023-04-07T02:15:34;5.05;;;3.53;;
49948;SDS011;35840;45.982;8.890;2023-04-07T02:18:02;5.75;;;4.38;;
49948;SDS011;35840;45.982;8.890;2023-04-07T02:20:32;4.38;;;3.65;;
49948;SDS011;35840;45.982;8.890;2023-04-07T02:23:01;4.97;;;3.75;;
49948;SDS011;35840;45.982;8.890;2023-04-07T02:25:29;6.93;;;4.53;;
49948;SDS011;35840;45.982;8.890;2023-04-07T02:27:57;7.35;;;5.03;;
49948;SDS011;35840;45.982;8.890;2023-04-07T02:30:25;8.52;;;5.22;;
49948;SDS011;35840;45.982;8.890;2023-04-07T02:32:53;6.20;;;3.88;;
49948;SDS011;35840;45.982;8.890;2023-04-07T02:35:19;6.13;;;4.13;;
49948;SDS011;35840;45.982;8.890;2023-04-07T02:37:47;9.85;;;5.32;;
49948;SDS011;35840;45.982;8.890;2023-04-07T02:40:14;5.85;;;4.22;;
49948;SDS011;35840;45.982;8.890;2023-04-07T02:42:41;6.10;;;3.97;;
49948;SDS011;35840;45.982;8.890;2023-04-07T02:45:08;16.40;;;5.13;;
49948;SDS011;35840;45.982;8.890;2023-04-07T02:47:36;6.50;;;4.40;;
49948;SDS011;35840;45.982;8.890;2023-04-07T02:50:03;7.65;;;4.60;;
49948;SDS011;35840;45.982;8.890;2023-04-07T02:52:33;5.28;;;4.28;;
49948;SDS011;35840;45.982;8.890;2023-04-07T02:55:04;7.13;;;4.72;;
49948;SDS011;35840;45.982;8.890;2023-04-07T02:57:33;7.20;;;5.05;;
49948;SDS011;35840;45.982;8.890;2023-04-07T03:00:03;9.05;;;6.13;;
49948;SDS011;35840;45.982;8.890;2023-04-07T03:02:47;9.15;;;4.95;;
49948;SDS011;35840;45.982;8.890;2023-04-07T03:05:17;8.65;;;4.97;;
49948;SDS011;35840;45.982;8.890;2023-04-07T03:07:44;5.68;;;4.50;;
49948;SDS011;35840;45.982;8.890;2023-04-07T03:10:12;7.88;;;4.72;;
49948;SDS011;35840;45.982;8.890;2023-04-07T03:12:39;9.38;;;5.03;;
49948;SDS011;35840;45.982;8.890;2023-04-07T03:15:06;9.27;;;5.32;;
49948;SDS011;35840;45.982;8.890;2023-04-07T03:17:34;8.85;;;5.20;;
49948;SDS011;35840;45.982;8.890;2023-04-07T03:20:01;6.30;;;4.70;;
49948;SDS011;35840;45.982;8.890;2023-04-07T03:22:31;7.20;;;4.78;;
49948;SDS011;35840;45.982;8.890;2023-04-07T03:24:58;6.53;;;4.82;;
49948;SDS011;35840;45.982;8.890;2023-04-07T03:27:25;6.07;;;4.45;;
49948;SDS011;35840;45.982;8.890;2023-04-07T03:29:52;8.68;;;4.93;;
49948;SDS011;35840;45.982;8.890;2023-04-07T03:32:20;9.55;;;4.93;;
49948;SDS011;35840;45.982;8.890;2023-04-07T03:34:47;12.18;;;5.68;;
49948;SDS011;35840;45.982;8.890;2023-04-07T03:37:15;7.25;;;4.53;;
49948;SDS011;35840;45.982;8.890;2023-04-07T03:39:42;5.97;;;4.53;;
49948;SDS011;35840;45.982;8.890;2023-04-07T03:42:22;7.25;;;5.15;;
49948;SDS011;35840;45.982;8.890;2023-04-07T03:44:54;10.77;;;4.93;;
49948;SDS011;35840;45.982;8.890;2023-04-07T03:47:22;9.20;;;5.20;;
49948;SDS011;35840;45.982;8.890;2023-04-07T03:49:54;6.68;;;4.05;;
49948;SDS011;35840;45.982;8.890;2023-04-07T03:52:21;6.22;;;4.43;;
49948;SDS011;35840;45.982;8.890;2023-04-07T03:54:52;7.43;;;4.72;;
49948;SDS011;35840;45.982;8.890;2023-04-07T03:57:23;7.57;;;5.25;;
49948;SDS011;35840;45.982;8.890;2023-04-07T03:59:50;6.47;;;4.53;;
49948;SDS011;35840;45.982;8.890;2023-04-07T04:02:17;7.78;;;4.88;;
49948;SDS011;35840;45.982;8.890;2023-04-07T04:04:49;7.32;;;4.68;;
49948;SDS011;35840;45.982;8.890;2023-04-07T04:07:17;5.93;;;4.97;;
49948;SDS011;35840;45.982;8.890;2023-04-07T04:09:47;8.88;;;5.57;;
49948;SDS011;35840;45.982;8.890;2023-04-07T04:12:14;8.63;;;4.82;;
49948;SDS011;35840;45.982;8.890;2023-04-07T04:14:49;6.50;;;4.57;;
49948;SDS011;35840;45.982;8.890;2023-04-07T04:17:17;4.72;;;3.83;;
49948;SDS011;35840;45.982;8.890;2023-04-07T04:19:45;7.72;;;3.40;;
49948;SDS011;35840;45.982;8.890;2023-04-07T04:22:20;7.00;;;4.03;;
49948;SDS011;35840;45.982;8.890;2023-04-07T04:24:51;7.53;;;4.35;;
49948;SDS011;35840;45.982;8.890;2023-04-07T04:27:20;4.82;;;3.42;;
49948;SDS011;35840;45.982;8.890;2023-04-07T04:29:52;5.18;;;3.83;;
49948;SDS011;35840;45.982;8.890;2023-04-07T04:32:28;4.82;;;3.70;;
49948;SDS011;35840;45.982;8.890;2023-04-07T04:34:55;5.88;;;4.28;;
49948;SDS011;35840;45.982;8.890;2023-04-07T04:37:23;7.82;;;4.78;;
49948;SDS011;35840;45.982;8.890;2023-04-07T04:39:52;6.85;;;4.47;;
49948;SDS011;35840;45.982;8.890;2023-04-07T04:42:20;6.90;;;3.80;;
49948;SDS011;35840;45.982;8.890;2023-04-07T04:44:47;4.93;;;3.53;;
49948;SDS011;35840;45.982;8.890;2023-04-07T04:47:16;6.53;;;4.05;;
49948;SDS011;35840;45.982;8.890;2023-04-07T04:49:44;4.45;;;3.25;;
49948;SDS011;35840;45.982;8.890;2023-04-07T04:52:11;5.13;;;2.97;;
49948;SDS011;35840;45.982;8.890;2023-04-07T04:54:41;3.47;;;2.55;;
49948;SDS011;35840;45.982;8.890;2023-04-07T04:57:10;4.50;;;2.80;;
49948;SDS011;35840;45.982;8.890;2023-04-07T04:59:37;6.68;;;3.00;;
49948;SDS011;35840;45.982;8.890;2023-04-07T05:02:05;3.63;;;2.75;;
49948;SDS011;35840;45.982;8.890;2023-04-07T05:04:32;6.15;;;2.90;;
49948;SDS011;35840;45.982;8.890;2023-04-07T05:07:16;4.63;;;3.40;;
49948;SDS011;35840;45.982;8.890;2023-04-07T05:09:43;6.30;;;4.57;;
49948;SDS011;35840;45.982;8.890;2023-04-07T05:12:10;4.35;;;3.78;;
49948;SDS011;35840;45.982;8.890;2023-04-07T05:14:42;12.43;;;5.30;;
49948;SDS011;35840;45.982;8.890;2023-04-07T05:17:09;6.45;;;4.28;;
49948;SDS011;35840;45.982;8.890;2023-04-07T05:19:36;8.20;;;4.40;;
49948;SDS011;35840;45.982;8.890;2023-04-07T05:22:11;7.70;;;5.32;;
49948;SDS011;35840;45.982;8.890;2023-04-07T05:24:44;7.13;;;4.35;;
49948;SDS011;35840;45.982;8.890;2023-04-07T05:27:11;7.07;;;5.18;;
49948;SDS011;35840;45.982;8.890;2023-04-07T05:29:39;8.00;;;4.30;;
49948;SDS011;35840;45.982;8.890;2023-04-07T05:32:11;11.02;;;5.47;;
49948;SDS011;35840;45.982;8.890;2023-04-07T05:34:39;7.00;;;4.95;;
49948;SDS011;35840;45.982;8.890;2023-04-07T05:37:06;7.45;;;4.68;;
49948;SDS011;35840;45.982;8.890;2023-04-07T05:39:33;12.10;;;4.78;;
49948;SDS011;35840;45.982;8.890;2023-04-07T05:42:02;6.47;;;4.55;;
49948;SDS011;35840;45.982;8.890;2023-04-07T05:44:29;10.98;;;5.78;;
49948;SDS011;35840;45.982;8.890;2023-04-07T05:46:56;9.02;;;5.65;;
49948;SDS011;35840;45.982;8.890;2023-04-07T05:49:24;9.65;;;5.13;;
49948;SDS011;35840;45.982;8.890;2023-04-07T05:51:59;10.10;;;5.97;;
49948;SDS011;35840;45.982;8.890;2023-04-07T05:54:26;6.22;;;5.13;;
49948;SDS011;35840;45.982;8.890;2023-04-07T05:56:53;14.43;;;5.25;;
49948;SDS011;35840;45.982;8.890;2023-04-07T05:59:21;9.10;;;6.03;;
49948;SDS011;35840;45.982;8.890;2023-04-07T06:01:49;11.95;;;5.68;;
49948;SDS011;35840;45.982;8.890;2023-04-07T06:04:16;12.02;;;5.25;;
49948;SDS011;35840;45.982;8.890;2023-04-07T06:06:45;10.13;;;5.45;;
49948;SDS011;35840;45.982;8.890;2023-04-07T06:09:12;8.73;;;6.25;;
49948;SDS011;35840;45.982;8.890;2023-04-07T06:11:39;10.35;;;5.97;;
49948;SDS011;35840;45.982;8.890;2023-04-07T06:14:06;9.18;;;6.22;;
49948;SDS011;35840;45.982;8.890;2023-04-07T06:16:33;10.30;;;6.70;;
49948;SDS011;35840;45.982;8.890;2023-04-07T06:19:00;12.40;;;6.43;;
49948;SDS011;35840;45.982;8.890;2023-04-07T06:21:27;12.23;;;6.53;;
49948;SDS011;35840;45.982;8.890;2023-04-07T06:23:54;12.50;;;6.55;;
49948;SDS011;35840;45.982;8.890;2023-04-07T06:26:21;8.95;;;6.32;;
49948;SDS011;35840;45.982;8.890;2023-04-07T06:28:48;16.13;;;7.57;;
49948;SDS011;35840;45.982;8.890;2023-04-07T06:31:16;25.77;;;6.50;;
49948;SDS011;35840;45.982;8.890;2023-04-07T06:33:44;8.73;;;5.88;;
49948;SDS011;35840;45.982;8.890;2023-04-07T06:36:11;11.25;;;6.82;;
49948;SDS011;35840;45.982;8.890;2023-04-07T06:38:38;17.52;;;6.38;;
49948;SDS011;35840;45.982;8.890;2023-04-07T06:41:05;11.02;;;5.95;;
49948;SDS011;35840;45.982;8.890;2023-04-07T06:43:34;18.10;;;6.30;;
49948;SDS011;35840;45.982;8.890;2023-04-07T06:46:02;8.98;;;6.07;;
49948;SDS011;35840;45.982;8.890;2023-04-07T06:48:29;12.32;;;6.72;;
49948;SDS011;35840;45.982;8.890;2023-04-07T06:50:56;10.50;;;6.88;;
49948;SDS011;35840;45.982;8.890;2023-04-07T06:53:23;12.52;;;6.20;;
49948;SDS011;35840;45.982;8.890;2023-04-07T06:55:50;8.75;;;5.53;;
49948;SDS011;35840;45.982;8.890;2023-04-07T06:58:16;9.15;;;5.20;;
49948;SDS011;35840;45.982;8.890;2023-04-07T07:00:43;9.93;;;5.55;;
49948;SDS011;35840;45.982;8.890;2023-04-07T07:03:10;8.25;;;5.45;;
49948;SDS011;35840;45.982;8.890;2023-04-07T07:05:37;9.70;;;4.90;;
49948;SDS011;35840;45.982;8.890;2023-04-07T07:08:04;8.35;;;5.80;;
49948;SDS011;35840;45.982;8.890;2023-04-07T07:10:30;10.02;;;5.65;;
49948;SDS011;35840;45.982;8.890;2023-04-07T07:12:57;8.10;;;5.78;;
49948;SDS011;35840;45.982;8.890;2023-04-07T07:15:24;9.65;;;5.47;;
49948;SDS011;35840;45.982;8.890;2023-04-07T07:17:51;9.63;;;6.95;;
49948;SDS011;35840;45.982;8.890;2023-04-07T07:20:18;8.30;;;5.60;;
49948;SDS011;35840;45.982;8.890;2023-04-07T07:22:44;17.23;;;7.07;;
49948;SDS011;35840;45.982;8.890;2023-04-07T07:25:11;13.00;;;6.18;;
49948;SDS011;35840;45.982;8.890;2023-04-07T07:27:38;9.52;;;6.10;;
49948;SDS011;35840;45.982;8.890;2023-04-07T07:30:05;10.45;;;5.68;;
49948;SDS011;35840;45.982;8.890;2023-04-07T07:32:32;11.18;;;6.25;;
49948;SDS011;35840;45.982;8.890;2023-04-07T07:34:59;10.57;;;6.50;;
49948;SDS011;35840;45.982;8.890;2023-04-07T07:37:26;13.50;;;6.97;;
49948;SDS011;35840;45.982;8.890;2023-04-07T07:39:53;13.38;;;6.40;;
49948;SDS011;35840;45.982;8.890;2023-04-07T07:42:20;8.25;;;5.55;;
49948;SDS011;35840;45.982;8.890;2023-04-07T07:44:47;8.38;;;5.82;;
49948;SDS011;35840;45.982;8.890;2023-04-07T07:47:14;10.73;;;6.28;;
49948;SDS011;35840;45.982;8.890;2023-04-07T07:49:40;10.50;;;6.40;;
49948;SDS011;35840;45.982;8.890;2023-04-07T07:52:07;10.15;;;6.18;;
49948;SDS011;35840;45.982;8.890;2023-04-07T07:54:35;10.82;;;7.35;;
49948;SDS011;35840;45.982;8.890;2023-04-07T07:57:02;10.40;;;6.45;;
49948;SDS011;35840;45.982;8.890;2023-04-07T07:59:29;12.95;;;6.55;;
49948;SDS011;35840;45.982;8.890;2023-04-07T08:01:56;10.73;;;6.53;;
49948;SDS011;35840;45.982;8.890;2023-04-07T08:04:23;10.98;;;6.07;;
49948;SDS011;35840;45.982;8.890;2023-04-07T08:06:50;12.40;;;7.10;;
49948;SDS011;35840;45.982;8.890;2023-04-07T08:09:18;11.25;;;6.88;;
49948;SDS011;35840;45.982;8.890;2023-04-07T08:11:45;10.55;;;6.82;;
49948;SDS011;35840;45.982;8.890;2023-04-07T08:14:14;12.25;;;6.63;;
49948;SDS011;35840;45.982;8.890;2023-04-07T08:16:41;11.88;;;6.53;;
49948;SDS011;35840;45.982;8.890;2023-04-07T08:19:08;12.93;;;7.20;;
49948;SDS011;35840;45.982;8.890;2023-04-07T08:21:35;12.93;;;7.15;;
49948;SDS011;35840;45.982;8.890;2023-04-07T08:24:02;11.77;;;7.07;;
49948;SDS011;35840;45.982;8.890;2023-04-07T08:26:29;10.10;;;6.60;;
49948;SDS011;35840;45.982;8.890;2023-04-07T08:28:57;9.93;;;6.93;;
49948;SDS011;35840;45.982;8.890;2023-04-07T08:31:26;10.10;;;6.13;;
49948;SDS011;35840;45.982;8.890;2023-04-07T08:33:53;15.25;;;6.75;;
49948;SDS011;35840;45.982;8.890;2023-04-07T08:36:26;14.45;;;7.97;;
49948;SDS011;35840;45.982;8.890;2023-04-07T08:38:55;11.93;;;7.05;;
49948;SDS011;35840;45.982;8.890;2023-04-07T08:41:26;15.18;;;7.57;;
49948;SDS011;35840;45.982;8.890;2023-04-07T08:43:57;15.25;;;6.55;;
49948;SDS011;35840;45.982;8.890;2023-04-07T08:46:27;11.25;;;6.50;;
49948;SDS011;35840;45.982;8.890;2023-04-07T08:48:55;10.70;;;7.00;;
49948;SDS011;35840;45.982;8.890;2023-04-07T08:51:27;10.95;;;6.60;;
49948;SDS011;35840;45.982;8.890;2023-04-07T08:54:09;11.73;;;7.35;;
49948;SDS011;35840;45.982;8.890;2023-04-07T08:56:39;15.23;;;8.10;;
49948;SDS011;35840;45.982;8.890;2023-04-07T08:59:08;11.00;;;6.85;;
49948;SDS011;35840;45.982;8.890;2023-04-07T09:01:39;14.38;;;6.63;;
49948;SDS011;35840;45.982;8.890;2023-04-07T09:04:07;10.40;;;7.20;;
49948;SDS011;35840;45.982;8.890;2023-04-07T09:06:35;14.70;;;7.40;;
49948;SDS011;35840;45.982;8.890;2023-04-07T09:09:04;15.65;;;7.38;;
49948;SDS011;35840;45.982;8.890;2023-04-07T09:11:35;12.80;;;6.90;;
49948;SDS011;35840;45.982;8.890;2023-04-07T09:14:04;12.50;;;6.95;;
49948;SDS011;35840;45.982;8.890;2023-04-07T09:16:30;14.82;;;7.38;;
49948;SDS011;35840;45.982;8.890;2023-04-07T09:18:58;12.02;;;6.60;;
49948;SDS011;35840;45.982;8.890;2023-04-07T09:21:25;11.82;;;7.55;;
49948;SDS011;35840;45.982;8.890;2023-04-07T09:23:52;11.63;;;7.03;;
49948;SDS011;35840;45.982;8.890;2023-04-07T09:26:20;14.23;;;8.00;;
49948;SDS011;35840;45.982;8.890;2023-04-07T09:28:49;11.00;;;7.40;;
49948;SDS011;35840;45.982;8.890;2023-04-07T09:31:42;19.65;;;8.23;;
49948;SDS011;35840;45.982;8.890;2023-04-07T09:34:22;15.45;;;7.85;;
49948;SDS011;35840;45.982;8.890;2023-04-07T09:36:50;14.20;;;8.30;;
49948;SDS011;35840;45.982;8.890;2023-04-07T09:39:17;16.27;;;8.52;;
49948;SDS011;35840;45.982;8.890;2023-04-07T09:41:45;12.15;;;7.38;;
49948;SDS011;35840;45.982;8.890;2023-04-07T09:44:12;13.40;;;7.35;;
49948;SDS011;35840;45.982;8.890;2023-04-07T09:49:16;14.55;;;7.75;;
49948;SDS011;35840;45.982;8.890;2023-04-07T09:51:55;14.43;;;8.50;;
49948;SDS011;35840;45.982;8.890;2023-04-07T09:57:01;15.05;;;8.80;;
49948;SDS011;35840;45.982;8.890;2023-04-07T09:59:30;14.02;;;9.10;;
49948;SDS011;35840;45.982;8.890;2023-04-07T10:01:58;15.52;;;9.77;;
49948;SDS011;35840;45.982;8.890;2023-04-07T10:04:26;17.08;;;8.65;;
49948;SDS011;35840;45.982;8.890;2023-04-07T10:06:55;18.27;;;9.95;;
49948;SDS011;35840;45.982;8.890;2023-04-07T10:09:25;13.73;;;8.50;;
49948;SDS011;35840;45.982;8.890;2023-04-07T10:11:54;15.20;;;9.60;;
49948;SDS011;35840;45.982;8.890;2023-04-07T10:14:25;14.18;;;9.23;;
49948;SDS011;35840;45.982;8.890;2023-04-07T10:16:55;17.88;;;10.15;;
49948;SDS011;35840;45.982;8.890;2023-04-07T10:19:23;15.38;;;10.35;;
49948;SDS011;35840;45.982;8.890;2023-04-07T10:21:52;19.08;;;10.82;;
49948;SDS011;35840;45.982;8.890;2023-04-07T10:27:21;19.92;;;11.38;;
49948;SDS011;35840;45.982;8.890;2023-04-07T10:29:54;22.45;;;13.07;;
49948;SDS011;35840;45.982;8.890;2023-04-07T10:32:23;24.15;;;11.75;;
49948;SDS011;35840;45.982;8.890;2023-04-07T10:37:20;20.48;;;11.18;;
49948;SDS011;35840;45.982;8.890;2023-04-07T10:39:48;18.80;;;11.52;;
49948;SDS011;35840;45.982;8.890;2023-04-07T10:45:03;20.35;;;11.80;;
49948;SDS011;35840;45.982;8.890;2023-04-07T10:47:34;18.45;;;11.48;;
49948;SDS011;35840;45.982;8.890;2023-04-07T10:50:22;20.23;;;11.90;;
49948;SDS011;35840;45.982;8.890;2023-04-07T10:53:24;21.80;;;13.02;;
49948;SDS011;35840;45.982;8.890;2023-04-07T10:55:44;22.95;;;11.90;;
49948;SDS011;35840;45.982;8.890;2023-04-07T11:03:37;27.58;;;13.18;;
49948;SDS011;35840;45.982;8.890;2023-04-07T11:06:10;21.27;;;10.68;;
49948;SDS011;35840;45.982;8.890;2023-04-07T11:08:39;20.20;;;11.48;;
49948;SDS011;35840;45.982;8.890;2023-04-07T11:11:08;22.60;;;13.25;;
49948;SDS011;35840;45.982;8.890;2023-04-07T11:13:57;24.70;;;12.70;;
49948;SDS011;35840;45.982;8.890;2023-04-07T11:16:33;24.50;;;12.80;;
49948;SDS011;35840;45.982;8.890;2023-04-07T11:19:08;22.73;;;12.35;;
49948;SDS011;35840;45.982;8.890;2023-04-07T11:21:35;21.52;;;13.57;;
49948;SDS011;35840;45.982;8.890;2023-04-07T11:24:02;22.30;;;14.45;;
49948;SDS011;35840;45.982;8.890;2023-04-07T11:26:29;21.77;;;13.15;;
49948;SDS011;35840;45.982;8.890;2023-04-07T11:29:03;21.50;;;11.65;;
49948;SDS011;35840;45.982;8.890;2023-04-07T11:31:30;20.42;;;12.65;;
49948;SDS011;35840;45.982;8.890;2023-04-07T11:36:26;20.25;;;11.10;;
49948;SDS011;35840;45.982;8.890;2023-04-07T11:39:16;19.50;;;11.23;;
49948;SDS011;35840;45.982;8.890;2023-04-07T11:41:46;16.38;;;10.57;;
49948;SDS011;35840;45.982;8.890;2023-04-07T11:44:14;16.70;;;9.20;;
49948;SDS011;35840;45.982;8.890;2023-04-07T11:46:57;19.13;;;11.90;;
49948;SDS011;35840;45.982;8.890;2023-04-07T11:49:26;21.17;;;11.63;;
49948;SDS011;35840;45.982;8.890;2023-04-07T11:52:11;19.15;;;10.80;;
49948;SDS011;35840;45.982;8.890;2023-04-07T11:54:42;16.50;;;11.02;;
49948;SDS011;35840;45.982;8.890;2023-04-07T11:57:13;17.73;;;10.57;;
49948;SDS011;35840;45.982;8.890;2023-04-07T11:59:41;18.10;;;10.50;;
49948;SDS011;35840;45.982;8.890;2023-04-07T12:02:07;16.98;;;10.05;;
49948;SDS011;35840;45.982;8.890;2023-04-07T12:04:35;18.45;;;11.13;;
49948;SDS011;35840;45.982;8.890;2023-04-07T12:07:09;18.23;;;10.93;;
49948;SDS011;35840;45.982;8.890;2023-04-07T12:09:37;16.83;;;11.38;;
49948;SDS011;35840;45.982;8.890;2023-04-07T12:12:05;18.00;;;10.70;;
49948;SDS011;35840;45.982;8.890;2023-04-07T12:14:33;17.50;;;10.52;;
49948;SDS011;35840;45.982;8.890;2023-04-07T12:17:01;21.02;;;12.45;;
49948;SDS011;35840;45.982;8.890;2023-04-07T12:19:30;18.00;;;11.07;;
49948;SDS011;35840;45.982;8.890;2023-04-07T12:22:02;17.10;;;11.50;;
49948;SDS011;35840;45.982;8.890;2023-04-07T12:24:28;17.45;;;10.57;;
49948;SDS011;35840;45.982;8.890;2023-04-07T12:26:57;17.10;;;10.52;;
49948;SDS011;35840;45.982;8.890;2023-04-07T12:29:25;15.13;;;10.00;;
49948;SDS011;35840;45.982;8.890;2023-04-07T12:31:51;15.85;;;9.65;;
49948;SDS011;35840;45.982;8.890;2023-04-07T12:34:18;14.45;;;10.38;;
49948;SDS011;35840;45.982;8.890;2023-04-07T12:36:45;11.00;;;9.02;;
49948;SDS011;35840;45.982;8.890;2023-04-07T12:39:14;12.38;;;8.43;;
49948;SDS011;35840;45.982;8.890;2023-04-07T12:41:41;11.90;;;8.43;;
49948;SDS011;35840;45.982;8.890;2023-04-07T12:44:10;11.82;;;8.50;;
49948;SDS011;35840;45.982;8.890;2023-04-07T12:46:37;12.43;;;8.25;;
49948;SDS011;35840;45.982;8.890;2023-04-07T12:49:04;12.55;;;8.70;;
49948;SDS011;35840;45.982;8.890;2023-04-07T12:51:31;14.55;;;8.15;;
49948;SDS011;35840;45.982;8.890;2023-04-07T12:54:01;12.50;;;8.07;;
49948;SDS011;35840;45.982;8.890;2023-04-07T12:56:28;12.20;;;6.97;;
49948;SDS011;35840;45.982;8.890;2023-04-07T12:58:56;12.85;;;7.43;;
49948;SDS011;35840;45.982;8.890;2023-04-07T13:01:22;8.35;;;5.53;;
49948;SDS011;35840;45.982;8.890;2023-04-07T13:03:49;8.23;;;6.15;;
49948;SDS011;35840;45.982;8.890;2023-04-07T13:06:18;7.65;;;5.25;;
49948;SDS011;35840;45.982;8.890;2023-04-07T13:08:45;6.88;;;4.47;;
49948;SDS011;35840;45.982;8.890;2023-04-07T13:11:11;7.32;;;4.60;;
49948;SDS011;35840;45.982;8.890;2023-04-07T13:13:38;9.15;;;5.72;;
49948;SDS011;35840;45.982;8.890;2023-04-07T13:16:05;8.13;;;5.13;;
49948;SDS011;35840;45.982;8.890;2023-04-07T13:18:32;7.68;;;4.95;;
49948;SDS011;35840;45.982;8.890;2023-04-07T13:20:59;10.23;;;5.82;;
49948;SDS011;35840;45.982;8.890;2023-04-07T13:23:29;9.07;;;5.57;;
49948;SDS011;35840;45.982;8.890;2023-04-07T13:25:58;10.90;;;5.50;;
49948;SDS011;35840;45.982;8.890;2023-04-07T13:28:25;9.45;;;5.65;;
49948;SDS011;35840;45.982;8.890;2023-04-07T13:30:51;9.45;;;5.80;;
49948;SDS011;35840;45.982;8.890;2023-04-07T13:33:18;8.82;;;5.22;;
49948;SDS011;35840;45.982;8.890;2023-04-07T13:35:45;9.05;;;5.72;;
49948;SDS011;35840;45.982;8.890;2023-04-07T13:38:12;11.48;;;5.50;;
49948;SDS011;35840;45.982;8.890;2023-04-07T13:40:38;8.55;;;5.47;;
49948;SDS011;35840;45.982;8.890;2023-04-07T13:43:06;10.27;;;5.75;;
49948;SDS011;35840;45.982;8.890;2023-04-07T13:45:34;9.43;;;5.13;;
49948;SDS011;35840;45.982;8.890;2023-04-07T13:48:00;9.20;;;5.55;;
49948;SDS011;35840;45.982;8.890;2023-04-07T13:50:27;7.35;;;5.28;;
49948;SDS011;35840;45.982;8.890;2023-04-07T13:52:54;6.60;;;4.47;;
49948;SDS011;35840;45.982;8.890;2023-04-07T13:55:21;9.45;;;5.18;;
49948;SDS011;35840;45.982;8.890;2023-04-07T13:57:48;6.47;;;5.05;;
49948;SDS011;35840;45.982;8.890;2023-04-07T14:00:15;9.27;;;6.05;;
49948;SDS011;35840;45.982;8.890;2023-04-07T14:02:42;9.63;;;5.53;;
49948;SDS011;35840;45.982;8.890;2023-04-07T14:05:11;10.73;;;6.22;;
49948;SDS011;35840;45.982;8.890;2023-04-07T14:07:38;9.68;;;5.97;;
49948;SDS011;35840;45.982;8.890;2023-04-07T14:10:05;9.32;;;5.57;;
49948;SDS011;35840;45.982;8.890;2023-04-07T14:12:35;7.53;;;6.20;;
49948;SDS011;35840;45.982;8.890;2023-04-07T14:15:02;10.25;;;5.60;;
49948;SDS011;35840;45.982;8.890;2023-04-07T14:17:29;7.80;;;4.43;;
49948;SDS011;35840;45.982;8.890;2023-04-07T14:19:56;8.13;;;5.28;;
49948;SDS011;35840;45.982;8.890;2023-04-07T14:22:23;6.22;;;4.38;;
49948;SDS011;35840;45.982;8.890;2023-04-07T14:24:50;7.72;;;5.35;;
49948;SDS011;35840;45.982;8.890;2023-04-07T14:27:17;7.95;;;4.88;;
49948;SDS011;35840;45.982;8.890;2023-04-07T14:29:49;7.63;;;5.25;;
49948;SDS011;35840;45.982;8.890;2023-04-07T14:32:16;8.60;;;4.90;;
49948;SDS011;35840;45.982;8.890;2023-04-07T14:34:42;5.93;;;4.43;;
49948;SDS011;35840;45.982;8.890;2023-04-07T14:37:10;6.80;;;4.57;;
49948;SDS011;35840;45.982;8.890;2023-04-07T14:39:37;5.50;;;3.90;;
49948;SDS011;35840;45.982;8.890;2023-04-07T14:42:04;10.00;;;4.95;;
49948;SDS011;35840;45.982;8.890;2023-04-07T14:44:32;8.50;;;5.95;;
49948;SDS011;35840;45.982;8.890;2023-04-07T14:46:59;9.40;;;6.57;;
49948;SDS011;35840;45.982;8.890;2023-04-07T14:49:26;9.23;;;5.40;;
49948;SDS011;35840;45.982;8.890;2023-04-07T14:51:54;8.50;;;5.72;;
49948;SDS011;35840;45.982;8.890;2023-04-07T14:54:21;9.63;;;5.07;;
49948;SDS011;35840;45.982;8.890;2023-04-07T14:56:48;9.23;;;5.68;;
49948;SDS011;35840;45.982;8.890;2023-04-07T14:59:15;6.60;;;4.90;;
49948;SDS011;35840;45.982;8.890;2023-04-07T15:01:42;7.47;;;5.07;;
49948;SDS011;35840;45.982;8.890;2023-04-07T15:04:09;8.55;;;5.38;;
49948;SDS011;35840;45.982;8.890;2023-04-07T15:06:36;6.88;;;4.88;;
49948;SDS011;35840;45.982;8.890;2023-04-07T15:09:02;6.60;;;4.60;;
49948;SDS011;35840;45.982;8.890;2023-04-07T15:11:29;10.20;;;5.70;;
49948;SDS011;35840;45.982;8.890;2023-04-07T15:13:56;8.05;;;5.40;;
49948;SDS011;35840;45.982;8.890;2023-04-07T15:16:22;7.30;;;4.78;;
49948;SDS011;35840;45.982;8.890;2023-04-07T15:18:49;13.13;;;6.13;;
49948;SDS011;35840;45.982;8.890;2023-04-07T15:21:16;7.90;;;4.63;;
49948;SDS011;35840;45.982;8.890;2023-04-07T15:23:44;10.13;;;4.97;;